Time;durP1;ratioP1;P1;durP2;ratioP2;P2;SDS_P1;SDS_P2;PMS_P1;PMS_P2;Temp;Humidity;BMP_temperature;BMP_pressure;BME280_temperature;BME280_humidity;BME280_pressure;Samples;Min_cycle;Max_cycle;Signal;HPM_P1;HPM_P2
2021/03/02 00:26:55;;;;;;;9.80;2.42;;;25.40;83.00;;;;;;4809657;27;9075145;-91
2021/03/02 00:29:35;;;;;;;;;;;;;;;;;;;;;
2021/03/02 00:32:45;;;;;;;6.68;2.28;;;25.20;83.00;;;;;;5103068;28;20032;-92
2021/03/02 00:36:04;;;;;;;7.57;2.28;;;25.20;82.70;;;;;;5095000;28;20028;-89
2021/03/02 00:38:31;;;;;;;10.25;2.45;;;25.30;82.80;;;;;;5097108;28;20032;-90
2021/03/02 00:41:00;;;;;;;10.13;2.90;;;25.30;82.30;;;;;;5108700;28;20058;-88
2021/03/02 00:44:09;;;;;;;4.20;2.20;;;25.30;81.70;;;;;;5107575;28;20042;-90
2021/03/02 00:47:05;;;;;;;;;;;;;;;;;;;;;
2021/03/02 00:50:12;;;;;;;;;;;;;;;;;;;;;
2021/03/02 00:53:29;;;;;;;7.63;2.95;;;25.20;81.40;;;;;;5078883;28;20027;-91
2021/03/02 00:56:18;;;;;;;6.63;2.40;;;25.20;81.20;;;;;;5098639;28;20081;-91
2021/03/02 01:03:40;;;;;;;6.22;2.15;;;25.20;80.00;;;;;;5130752;28;20022;-89
2021/03/02 01:11:53;;;;;;;11.52;2.00;;;25.10;79.50;;;;;;5108573;28;20036;-90
2021/03/02 01:14:23;;;;;;;7.22;2.40;;;25.00;79.00;;;;;;5102931;28;20027;-91
2021/03/02 01:23:51;;;;;;;9.10;2.30;;;24.90;78.40;;;;;;5049903;28;20022;-90
2021/03/02 01:26:29;;;;;;;5.10;1.55;;;24.90;77.20;;;;;;5057076;28;20021;-91
2021/03/02 01:28:56;;;;;;;6.75;1.92;;;24.90;77.00;;;;;;5087613;28;20016;-95
2021/03/02 01:31:26;;;;;;;6.07;1.55;;;24.90;76.30;;;;;;5083555;28;20116;-91
2021/03/02 01:33:53;;;;;;;6.13;1.60;;;24.90;76.30;;;;;;5081895;28;20028;-93
2021/03/02 01:36:23;;;;;;;7.65;2.10;;;24.80;74.60;;;;;;5105264;28;20084;-88
2021/03/02 01:38:56;;;;;;;8.98;1.85;;;24.80;74.30;;;;;;5067135;28;20096;-91
2021/03/02 01:41:23;;;;;;;6.60;1.55;;;24.80;74.50;;;;;;5067262;28;20025;-95
2021/03/02 01:44:50;;;;;;;;;;;;;;;;;;;;;
2021/03/02 01:47:42;;;;;;;7.00;1.73;;;24.90;73.40;;;;;;5036251;28;20017;-92
2021/03/02 01:50:48;;;;;;;6.22;1.60;;;24.80;73.00;;;;;;5023542;28;20041;-91
2021/03/02 02:06:41;;;;;;;4.93;1.40;;;24.70;71.40;;;;;;5094356;28;20050;-89
2021/03/02 02:09:59;;;;;;;5.18;1.38;;;24.60;72.30;;;;;;5096012;28;20036;-90
2021/03/02 02:13:45;;;;;;;;;;;;;;;;;;;;;
2021/03/02 02:24:04;;;;;;;4.93;1.02;;;24.50;70.00;;;;;;5010755;28;20069;-88
2021/03/02 02:29:59;;;;;;;11.63;6.38;;;24.50;69.70;;;;;;4975351;28;20060;-91
2021/03/02 02:40:16;;;;;;;8.60;3.92;;;24.40;69.40;;;;;;4927701;29;20038;-88
2021/03/02 02:44:13;;;;;;;;;;;;;;;;;;;;;
2021/03/02 02:46:11;;;;;;;11.52;4.43;;;24.40;68.00;;;;;;4987228;28;20123;-89
2021/03/02 02:48:52;;;;;;;8.50;3.42;;;24.40;67.50;;;;;;5091500;28;20032;-89
2021/03/02 02:52:34;;;;;;;5.82;2.70;;;24.30;68.20;;;;;;5079991;28;20104;-91
2021/03/02 02:55:31;;;;;;;6.80;3.55;;;24.30;67.20;;;;;;5013364;28;20030;-91
2021/03/02 02:58:16;;;;;;;2.75;1.80;;;24.40;66.90;;;;;;4983404;28;20035;-89
2021/03/02 03:00:51;;;;;;;5.63;1.80;;;24.40;66.50;;;;;;4990792;28;20026;-91
2021/03/02 03:06:31;;;;;;;2.88;1.05;;;24.40;66.10;;;;;;4983086;26;20037;-92
2021/03/02 03:09:01;;;;;;;2.20;1.02;;;24.30;66.20;;;;;;5041857;28;20029;-92
2021/03/02 03:11:57;;;;;;;2.95;1.10;;;24.30;65.00;;;;;;5042830;28;20029;-92
2021/03/02 03:15:02;;;;;;;2.53;0.85;;;24.30;65.70;;;;;;5018032;28;20111;-92
2021/03/02 03:17:37;;;;;;;3.67;1.17;;;24.30;64.70;;;;;;4988187;28;20050;-91
2021/03/02 03:20:13;;;;;;;2.95;0.85;;;24.30;65.40;;;;;;5032953;28;20041;-94
2021/03/02 03:22:40;;;;;;;1.98;0.68;;;24.30;64.00;;;;;;5035767;28;20025;-93
2021/03/02 03:25:09;;;;;;;3.45;1.00;;;24.30;65.20;;;;;;5069559;28;20035;-92
2021/03/02 03:27:58;;;;;;;4.93;1.20;;;24.30;65.20;;;;;;5063351;28;20059;-92
2021/03/02 03:30:34;;;;;;;6.72;1.02;;;24.30;64.50;;;;;;5039727;28;20033;-92
2021/03/02 03:33:05;;;;;;;4.15;0.82;;;24.20;64.20;;;;;;5034312;28;20036;-91
2021/03/02 03:35:33;;;;;;;2.05;0.82;;;24.20;64.20;;;;;;5036141;28;20048;-94
2021/03/02 03:38:39;;;;;;;2.30;0.70;;;24.20;65.00;;;;;;5052165;28;20051;-90
2021/03/02 03:41:08;;;;;;;1.08;0.68;;;24.20;63.30;;;;;;5067422;28;20135;-89
2021/03/02 03:43:36;;;;;;;4.30;1.10;;;24.20;63.90;;;;;;5067038;28;20040;-90
2021/03/02 03:46:06;;;;;;;5.45;0.95;;;24.20;63.20;;;;;;5062008;28;20040;-92
2021/03/02 03:48:33;;;;;;;2.95;0.88;;;24.20;63.50;;;;;;5036220;28;20084;-94
2021/03/02 03:51:00;;;;;;;4.20;0.88;;;24.20;62.30;;;;;;5060394;28;20041;-94
2021/03/02 03:53:32;;;;;;;1.75;0.60;;;24.20;63.20;;;;;;5056379;28;20025;-94
2021/03/02 03:56:05;;;;;;;3.97;0.85;;;24.10;63.90;;;;;;5055447;28;20109;-94
2021/03/02 03:58:34;;;;;;;1.90;0.95;;;24.20;63.10;;;;;;5056260;28;20029;-93
2021/03/02 04:01:08;;;;;;;2.83;0.68;;;24.10;62.90;;;;;;5062943;28;20049;-93
2021/03/02 04:03:37;;;;;;;3.58;1.00;;;24.10;62.70;;;;;;5033844;28;20025;-90
2021/03/02 04:06:05;;;;;;;3.63;1.02;;;24.10;63.20;;;;;;5029732;28;20057;-93
2021/03/02 04:09:13;;;;;;;;;;;;;;;;;;;;;
2021/03/02 04:12:32;;;;;;;1.52;0.80;;;24.00;63.20;;;;;;5043486;28;20254;-95
2021/03/02 04:15:13;;;;;;;2.08;0.80;;;24.00;63.20;;;;;;4967821;28;20363;-95
2021/03/02 04:17:41;;;;;;;2.88;0.98;;;24.00;63.00;;;;;;5051527;28;20286;-94
2021/03/02 04:20:09;;;;;;;1.33;0.65;;;23.90;62.90;;;;;;5070015;28;20074;-95
2021/03/02 04:22:37;;;;;;;3.35;0.80;;;23.90;63.20;;;;;;5042677;28;20040;-95
2021/03/02 04:25:06;;;;;;;4.50;0.85;;;23.90;63.60;;;;;;5204904;22;20031;-94
2021/03/02 04:27:33;;;;;;;4.28;0.90;;;23.80;63.00;;;;;;5015117;28;20072;-95
2021/03/02 04:30:04;;;;;;;2.45;0.93;;;23.90;62.60;;;;;;5037159;28;20048;-94
2021/03/02 04:32:36;;;;;;;1.65;0.90;;;23.90;62.90;;;;;;5031161;28;20030;-93
2021/03/02 04:35:17;;;;;;;2.65;0.80;;;23.90;61.70;;;;;;5022968;28;20281;-91
2021/03/02 04:37:51;;;;;;;1.95;0.45;;;23.90;62.00;;;;;;5036031;28;20029;-94
2021/03/02 04:40:33;;;;;;;2.70;0.98;;;23.90;62.30;;;;;;5040792;28;20205;-93
2021/03/02 04:43:15;;;;;;;3.25;0.70;;;23.90;61.40;;;;;;5044486;28;20056;-93
2021/03/02 04:45:42;;;;;;;4.97;1.20;;;23.90;61.80;;;;;;5005119;28;20038;-93
2021/03/02 04:48:12;;;;;;;4.25;0.77;;;24.00;61.20;;;;;;5012772;28;20037;-96
2021/03/02 04:50:40;;;;;;;3.13;0.90;;;23.90;61.30;;;;;;5014377;28;20030;-96
2021/03/02 04:53:08;;;;;;;6.40;0.88;;;23.90;61.90;;;;;;5014293;28;20048;-96
2021/03/02 04:55:35;;;;;;;5.80;0.95;;;23.90;61.70;;;;;;5013569;28;20029;-94
2021/03/02 04:58:02;;;;;;;6.28;0.75;;;23.90;61.50;;;;;;5015719;28;20073;-90
2021/03/02 05:00:29;;;;;;;1.83;0.70;;;23.90;60.90;;;;;;5015454;28;20052;-93
2021/03/02 05:02:55;;;;;;;2.83;0.65;;;23.90;61.70;;;;;;5020325;28;20113;-92
2021/03/02 05:05:22;;;;;;;1.45;0.60;;;23.80;61.30;;;;;;5015373;28;20029;-94
2021/03/02 05:07:49;;;;;;;1.95;0.80;;;23.80;62.20;;;;;;5025098;28;20042;-94
2021/03/02 05:10:16;;;;;;;2.08;0.65;;;23.80;61.80;;;;;;5029033;28;20037;-93
2021/03/02 05:12:43;;;;;;;3.60;0.63;;;23.70;62.80;;;;;;5058862;28;20044;-90
2021/03/02 05:15:10;;;;;;;2.03;0.60;;;23.70;62.20;;;;;;5040788;28;20041;-90
2021/03/02 05:17:37;;;;;;;3.80;0.70;;;23.70;62.10;;;;;;5042434;28;20064;-92
2021/03/02 05:20:05;;;;;;;2.45;0.70;;;23.70;62.60;;;;;;5043533;28;20037;-91
2021/03/02 05:22:32;;;;;;;3.30;0.82;;;23.70;61.80;;;;;;5042622;28;20056;-95
2021/03/02 05:24:58;;;;;;;5.88;0.77;;;23.80;61.40;;;;;;5054750;28;20103;-90
2021/03/02 05:27:25;;;;;;;3.90;0.68;;;23.80;61.30;;;;;;5054057;28;20049;-93
2021/03/02 05:29:52;;;;;;;3.10;0.70;;;23.90;60.50;;;;;;5054468;28;20037;-91
2021/03/02 05:32:19;;;;;;;2.75;0.80;;;23.90;60.30;;;;;;5054780;28;20048;-91
2021/03/02 05:34:45;;;;;;;3.65;0.95;;;23.90;60.30;;;;;;5042518;28;20033;-91
2021/03/02 05:37:15;;;;;;;3.83;0.70;;;23.90;60.60;;;;;;5056789;28;20028;-90
2021/03/02 05:39:44;;;;;;;7.68;1.08;;;23.90;60.80;;;;;;5036357;28;20113;-88
2021/03/02 05:42:11;;;;;;;2.15;1.10;;;23.90;60.50;;;;;;5041507;28;20092;-92
2021/03/02 05:44:38;;;;;;;3.35;0.77;;;23.90;60.80;;;;;;5035657;28;20067;-93
2021/03/02 05:47:05;;;;;;;3.35;0.70;;;23.90;61.10;;;;;;5038807;28;20063;-91
2021/03/02 05:49:32;;;;;;;3.63;0.90;;;23.90;61.30;;;;;;5035033;28;20033;-90
2021/03/02 05:51:59;;;;;;;2.60;0.50;;;23.80;61.20;;;;;;5035090;28;20029;-91
2021/03/02 05:54:26;;;;;;;3.05;0.73;;;23.80;61.00;;;;;;5016880;28;20022;-91
2021/03/02 05:56:53;;;;;;;6.25;1.10;;;23.80;61.90;;;;;;5014531;28;20059;-92
2021/03/02 05:59:20;;;;;;;2.40;0.70;;;23.70;61.50;;;;;;5032485;28;20029;-91
2021/03/02 06:01:46;;;;;;;3.03;0.70;;;23.70;62.10;;;;;;5035127;28;20028;-90
2021/03/02 06:04:16;;;;;;;4.60;0.93;;;23.60;62.30;;;;;;5033783;28;20097;-90
2021/03/02 06:06:43;;;;;;;5.90;0.82;;;23.60;62.20;;;;;;5052081;28;20045;-92
2021/03/02 06:09:12;;;;;;;7.38;1.02;;;23.50;62.80;;;;;;5033690;28;20033;-89
2021/03/02 06:11:39;;;;;;;5.03;0.73;;;23.50;62.80;;;;;;5048477;28;20340;-90
2021/03/02 06:14:23;;;;;;;4.35;0.52;;;23.40;63.70;;;;;;5044827;28;20024;-91
2021/03/02 06:16:51;;;;;;;3.10;0.82;;;23.40;63.70;;;;;;5050150;28;20041;-92
2021/03/02 06:19:34;;;;;;;4.15;0.73;;;23.40;63.20;;;;;;5032428;28;20033;-91
2021/03/02 06:22:01;;;;;;;;;;;23.30;63.60;;;;;;5038878;28;20056;-91
2021/03/02 06:24:54;;;;;;;3.60;0.90;;;23.30;63.80;;;;;;5034321;28;19968;-91
2021/03/02 06:27:21;;;;;;;5.43;1.05;;;23.30;63.80;;;;;;5026263;28;20057;-92
2021/03/02 06:30:07;;;;;;;1.40;0.68;;;23.30;63.90;;;;;;5029758;28;20044;-91
2021/03/02 06:32:53;;;;;;;2.58;0.88;;;23.30;63.90;;;;;;5030469;28;20029;-93
2021/03/02 06:35:35;;;;;;;2.13;0.52;;;23.30;63.40;;;;;;5037821;28;20037;-92
2021/03/02 06:38:05;;;;;;;4.13;0.65;;;23.30;63.40;;;;;;5031642;28;20381;-92
2021/03/02 06:40:43;;;;;;;1.33;0.73;;;23.30;63.40;;;;;;5049763;28;20037;-92
2021/03/02 06:43:28;;;;;;;4.55;0.80;;;23.30;64.10;;;;;;5031558;28;20025;-92
2021/03/02 06:45:55;;;;;;;2.95;0.68;;;23.30;64.90;;;;;;5050038;28;20033;-92
2021/03/02 06:48:22;;;;;;;1.90;0.70;;;23.30;65.00;;;;;;5030728;28;20025;-93
2021/03/02 06:50:49;;;;;;;5.50;1.00;;;23.20;65.30;;;;;;5028631;28;20044;-93
2021/03/02 06:53:17;;;;;;;8.13;0.93;;;23.20;65.90;;;;;;5031103;28;20030;-93
2021/03/02 06:55:43;;;;;;;2.33;0.73;;;23.20;65.60;;;;;;5018180;28;20037;-91
2021/03/02 06:58:24;;;;;;;5.18;0.95;;;23.20;65.30;;;;;;5038325;28;20041;-91
2021/03/02 07:00:56;;;;;;;3.10;0.80;;;23.30;64.50;;;;;;5049686;28;20032;-92
2021/03/02 07:03:31;;;;;;;4.75;0.90;;;23.30;65.20;;;;;;5031511;28;20025;-92
2021/03/02 07:06:07;;;;;;;4.32;0.60;;;23.30;65.10;;;;;;5030668;28;20037;-89
2021/03/02 07:08:36;;;;;;;3.00;1.05;;;23.30;65.30;;;;;;5029317;28;20029;-91
2021/03/02 07:11:04;;;;;;;3.90;1.00;;;23.30;65.90;;;;;;5028799;28;20033;-88
2021/03/02 07:13:33;;;;;;;4.82;0.85;;;23.20;65.40;;;;;;5027799;28;20029;-90
2021/03/02 07:16:02;;;;;;;2.35;0.85;;;23.20;65.70;;;;;;5012668;28;20049;-90
2021/03/02 07:18:31;;;;;;;5.00;1.02;;;23.10;65.70;;;;;;5028092;28;20032;-92
2021/03/02 07:21:01;;;;;;;2.85;0.77;;;23.20;65.40;;;;;;5027029;28;20356;-92
2021/03/02 07:23:33;;;;;;;2.63;0.90;;;23.20;65.20;;;;;;5028308;28;20095;-89
2021/03/02 07:26:02;;;;;;;1.80;0.80;;;23.30;65.30;;;;;;5028547;28;20061;-92
2021/03/02 07:28:35;;;;;;;3.55;1.15;;;23.30;65.30;;;;;;5029590;28;20039;-92
2021/03/02 07:31:03;;;;;;;3.08;1.27;;;23.30;65.10;;;;;;5031826;28;20032;-89
2021/03/02 07:33:32;;;;;;;4.28;0.77;;;23.20;65.10;;;;;;5037250;28;20029;-92
2021/03/02 07:35:59;;;;;;;4.03;0.77;;;23.20;65.90;;;;;;5044066;28;20368;-90
2021/03/02 07:38:27;;;;;;;5.70;1.13;;;23.20;65.80;;;;;;5031218;28;20068;-92
2021/03/02 07:40:55;;;;;;;3.45;0.90;;;23.20;66.20;;;;;;5046538;28;20041;-92
2021/03/02 07:43:53;;;;;;;5.47;0.82;;;23.20;66.60;;;;;;5027909;28;20317;-90
2021/03/02 07:46:43;;;;;;;3.58;0.80;;;23.20;66.20;;;;;;5026568;28;20059;-91
2021/03/02 07:49:25;;;;;;;4.47;1.00;;;23.20;66.30;;;;;;5034958;28;20026;-90
2021/03/02 07:52:01;;;;;;;4.43;1.20;;;23.10;66.80;;;;;;5032551;28;20029;-90
2021/03/02 07:54:33;;;;;;;2.85;0.90;;;23.10;67.70;;;;;;5046676;28;20021;-91
2021/03/02 07:57:19;;;;;;;5.50;1.40;;;23.10;67.50;;;;;;5046744;28;20100;-91
2021/03/02 07:59:47;;;;;;;3.35;0.95;;;23.10;67.30;;;;;;5046403;28;20071;-89
2021/03/02 08:02:21;;;;;;;6.97;1.25;;;23.10;67.60;;;;;;5063583;28;20036;-91
2021/03/02 08:04:49;;;;;;;3.72;0.82;;;23.10;67.30;;;;;;5064156;28;20032;-92
2021/03/02 08:07:28;;;;;;;3.88;1.17;;;23.10;67.90;;;;;;5046424;28;20029;-91
2021/03/02 08:10:00;;;;;;;3.88;1.10;;;23.10;67.80;;;;;;5046176;28;20056;-91
2021/03/02 08:12:37;;;;;;;2.47;0.93;;;23.00;67.80;;;;;;5064703;28;20033;-89
2021/03/02 08:15:13;;;;;;;3.22;1.00;;;23.00;68.10;;;;;;5063505;28;20371;-90
2021/03/02 08:17:42;;;;;;;5.43;1.33;;;23.10;67.80;;;;;;5064117;28;20088;-90
2021/03/02 08:20:10;;;;;;;4.22;1.40;;;23.10;67.80;;;;;;5064141;28;20021;-91
2021/03/02 08:22:43;;;;;;;4.18;1.10;;;23.00;67.70;;;;;;5063844;28;20036;-91
2021/03/02 08:25:29;;;;;;;3.08;1.27;;;23.00;67.90;;;;;;5046556;28;20036;-92
2021/03/02 08:27:59;;;;;;;2.55;1.10;;;23.10;67.90;;;;;;5046227;28;20049;-91
2021/03/02 08:30:37;;;;;;;2.88;0.85;;;23.10;68.10;;;;;;5064068;28;20209;-89
2021/03/02 08:33:09;;;;;;;5.50;1.48;;;23.00;68.40;;;;;;5046016;28;20065;-90
2021/03/02 08:35:39;;;;;;;6.80;1.70;;;23.00;68.30;;;;;;5046195;28;20033;-93
2021/03/02 08:38:07;;;;;;;3.50;0.90;;;23.00;68.40;;;;;;5046257;28;20029;-91
2021/03/02 08:40:34;;;;;;;2.05;0.60;;;23.00;68.80;;;;;;5064037;28;20073;-91
2021/03/02 08:43:14;;;;;;;4.63;1.10;;;22.90;68.20;;;;;;5046379;28;20033;-92
2021/03/02 08:45:52;;;;;;;1.85;0.88;;;23.00;67.80;;;;;;5064225;28;20029;-92
2021/03/02 08:48:29;;;;;;;4.50;0.90;;;23.00;67.50;;;;;;5067515;28;20036;-92
2021/03/02 08:51:06;;;;;;;4.35;1.15;;;23.00;68.20;;;;;;5050296;28;20032;-92
2021/03/02 08:53:41;;;;;;;2.92;0.90;;;22.90;68.10;;;;;;5050143;28;20045;-92
2021/03/02 08:56:09;;;;;;;3.15;1.00;;;22.90;69.20;;;;;;5049899;28;20107;-92
2021/03/02 08:58:39;;;;;;;8.60;1.23;;;22.80;69.00;;;;;;5049953;28;20033;-93
2021/03/02 09:01:18;;;;;;;6.60;1.45;;;22.80;70.00;;;;;;5068110;28;20339;-93
2021/03/02 09:03:46;;;;;;;4.68;1.73;;;22.80;69.50;;;;;;5067803;28;20033;-92
2021/03/02 09:06:22;;;;;;;3.90;0.90;;;22.80;69.70;;;;;;5068091;28;20024;-92
2021/03/02 09:09:12;;;;;;;3.42;1.10;;;22.80;69.60;;;;;;5050107;28;20044;-93
2021/03/02 09:11:43;;;;;;;2.85;0.85;;;22.80;69.80;;;;;;5041323;28;20036;-92
2021/03/02 09:14:16;;;;;;;8.15;1.10;;;22.80;68.70;;;;;;5049831;28;20120;-92
2021/03/02 09:16:47;;;;;;;6.07;1.25;;;22.80;68.60;;;;;;5049438;28;20328;-91
2021/03/02 09:19:33;;;;;;;4.03;0.95;;;22.80;68.50;;;;;;5049857;28;20092;-89
2021/03/02 09:22:11;;;;;;;2.67;0.73;;;22.80;68.50;;;;;;5068517;28;20198;-93
2021/03/02 09:24:53;;;;;;;3.92;1.08;;;22.80;67.40;;;;;;5051652;28;20025;-92
2021/03/02 09:27:23;;;;;;;3.00;1.27;;;22.80;67.60;;;;;;5048444;28;20053;-92
2021/03/02 09:29:51;;;;;;;3.17;0.88;;;22.80;68.20;;;;;;5049569;28;20100;-92
2021/03/02 09:32:28;;;;;;;4.53;0.98;;;22.80;67.90;;;;;;5048881;28;20028;-91
2021/03/02 09:34:57;;;;;;;3.63;1.20;;;22.80;68.50;;;;;;5049066;28;20087;-93
2021/03/02 09:37:24;;;;;;;3.05;1.25;;;22.80;67.70;;;;;;5049684;28;20033;-93
2021/03/02 09:40:09;;;;;;;3.42;1.13;;;22.70;68.30;;;;;;5049078;28;20025;-92
2021/03/02 09:42:39;;;;;;;5.55;1.20;;;22.70;67.60;;;;;;5049039;28;20029;-94
2021/03/02 09:45:12;;;;;;;2.90;0.82;;;22.70;66.40;;;;;;5049488;28;20033;-92
2021/03/02 09:47:40;;;;;;;2.47;0.70;;;22.80;66.50;;;;;;5049044;28;20217;-90
2021/03/02 09:50:12;;;;;;;3.22;1.13;;;22.80;66.40;;;;;;5049041;28;20098;-92
2021/03/02 09:52:40;;;;;;;3.30;0.80;;;22.70;66.60;;;;;;5049015;28;20035;-92
2021/03/02 09:55:30;;;;;;;2.88;0.98;;;22.70;66.20;;;;;;5048577;28;20056;-92
2021/03/02 09:58:20;;;;;;;4.57;1.00;;;22.70;67.20;;;;;;5048052;28;20101;-91
2021/03/02 10:00:53;;;;;;;3.42;1.10;;;22.70;67.00;;;;;;5067656;28;20028;-93
2021/03/02 10:03:49;;;;;;;2.22;0.68;;;22.70;67.20;;;;;;5049871;28;20052;-95
2021/03/02 10:06:24;;;;;;;2.95;1.02;;;22.70;67.40;;;;;;5048773;28;20037;-92
2021/03/02 10:08:52;;;;;;;3.47;1.42;;;22.60;67.90;;;;;;5050376;28;20035;-90
2021/03/02 10:11:23;;;;;;;7.28;1.05;;;22.60;68.00;;;;;;5067403;28;20093;-92
2021/03/02 10:13:59;;;;;;;4.28;1.25;;;22.60;68.10;;;;;;5049426;28;20033;-93
2021/03/02 10:16:38;;;;;;;3.88;1.25;;;22.60;68.20;;;;;;5048982;28;20379;-92
2021/03/02 10:19:19;;;;;;;3.72;1.33;;;22.60;68.20;;;;;;5066293;28;20029;-94
2021/03/02 10:21:50;;;;;;;1.90;1.00;;;22.60;68.60;;;;;;5048509;28;20029;-91
2021/03/02 10:24:37;;;;;;;4.13;0.90;;;22.70;68.60;;;;;;5066343;28;20021;-92
2021/03/02 10:27:13;;;;;;;5.07;1.13;;;22.70;68.70;;;;;;5048482;28;20376;-93
2021/03/02 10:29:44;;;;;;;3.83;1.38;;;22.70;68.90;;;;;;5048702;28;20325;-94
2021/03/02 10:32:11;;;;;;;4.55;1.23;;;22.70;68.70;;;;;;5032547;28;20099;-93
2021/03/02 10:34:38;;;;;;;4.22;1.00;;;22.80;68.30;;;;;;5046081;28;20091;-93
2021/03/02 10:37:07;;;;;;;4.80;1.27;;;22.80;68.40;;;;;;5028535;28;20037;-93
2021/03/02 10:39:34;;;;;;;10.32;1.75;;;22.90;68.30;;;;;;5028254;28;20374;-91
2021/03/02 10:42:03;;;;;;;1.77;0.88;;;22.90;68.40;;;;;;5028427;28;20322;-93
2021/03/02 10:44:31;;;;;;;2.97;1.25;;;22.90;68.30;;;;;;5013241;28;20030;-92
2021/03/02 10:46:58;;;;;;;5.07;1.40;;;22.90;69.00;;;;;;5012257;28;20079;-93
2021/03/02 10:49:25;;;;;;;5.63;1.35;;;23.00;68.90;;;;;;5027767;28;20029;-94
2021/03/02 10:51:53;;;;;;;3.28;1.00;;;23.00;68.80;;;;;;5027495;28;20099;-93
2021/03/02 10:54:19;;;;;;;3.83;0.93;;;23.00;68.30;;;;;;5027612;28;20021;-94
2021/03/02 10:56:46;;;;;;;8.00;0.93;;;22.90;68.80;;;;;;5028430;28;20080;-93
2021/03/02 10:59:13;;;;;;;5.50;1.10;;;22.80;70.30;;;;;;5027543;28;20124;-92
2021/03/02 11:01:39;;;;;;;3.50;0.93;;;22.80;70.20;;;;;;5027620;28;20037;-93
2021/03/02 11:04:06;;;;;;;8.73;1.58;;;22.80;69.30;;;;;;5028133;28;20095;-93
2021/03/02 11:06:33;;;;;;;2.83;1.00;;;22.80;66.40;;;;;;5027589;28;20064;-92
2021/03/02 11:09:02;;;;;;;3.38;1.02;;;22.80;65.90;;;;;;5026577;28;20071;-90
2021/03/02 11:11:29;;;;;;;1.60;1.00;;;22.80;64.80;;;;;;5027379;28;20038;-91
2021/03/02 11:13:59;;;;;;;5.55;1.80;;;22.80;66.50;;;;;;5047688;28;20064;-93
2021/03/02 11:16:26;;;;;;;3.88;1.10;;;22.80;66.70;;;;;;5027161;28;20029;-93
2021/03/02 11:18:53;;;;;;;2.92;1.13;;;22.70;65.40;;;;;;5027851;28;20034;-93
2021/03/02 11:21:20;;;;;;;7.68;1.15;;;22.80;65.40;;;;;;5027115;28;20021;-93
2021/03/02 11:23:47;;;;;;;4.95;1.00;;;22.80;66.30;;;;;;5027735;28;20033;-93
2021/03/02 11:26:13;;;;;;;3.58;0.90;;;22.90;65.60;;;;;;5029640;28;20051;-93
2021/03/02 11:28:40;;;;;;;4.75;1.08;;;22.90;66.30;;;;;;5028184;28;20033;-94
2021/03/02 11:31:10;;;;;;;2.75;1.13;;;22.90;65.10;;;;;;5045688;28;20029;-91
2021/03/02 11:33:44;;;;;;;2.72;1.10;;;22.90;65.70;;;;;;5047325;28;20090;-94
2021/03/02 11:36:11;;;;;;;4.80;1.20;;;23.00;64.80;;;;;;5011673;28;20417;-93
2021/03/02 11:38:37;;;;;;;2.28;1.58;;;22.90;64.90;;;;;;5027897;28;20040;-92
2021/03/02 11:41:04;;;;;;;2.35;1.20;;;23.10;65.00;;;;;;5027792;28;20052;-92
2021/03/02 11:43:31;;;;;;;8.00;1.52;;;23.30;63.60;;;;;;5046717;28;20021;-92
2021/03/02 11:45:58;;;;;;;9.93;1.73;;;23.40;65.40;;;;;;5045225;28;20063;-92
2021/03/02 11:48:25;;;;;;;5.00;1.20;;;23.50;63.70;;;;;;5028945;28;20040;-92
2021/03/02 11:50:52;;;;;;;6.03;1.58;;;23.60;63.30;;;;;;5028002;28;20072;-92
2021/03/02 11:53:20;;;;;;;3.38;1.35;;;23.60;63.00;;;;;;5028591;28;20094;-93
2021/03/02 11:55:46;;;;;;;3.50;1.40;;;23.70;63.10;;;;;;5027636;28;20033;-93
2021/03/02 11:58:16;;;;;;;2.25;1.25;;;23.80;62.50;;;;;;5029461;28;20032;-93
2021/03/02 12:00:42;;;;;;;5.03;1.20;;;24.00;64.20;;;;;;5014010;28;20033;-92
2021/03/02 12:03:09;;;;;;;5.82;1.98;;;24.10;64.50;;;;;;5028048;28;20025;-90
2021/03/02 12:05:36;;;;;;;4.10;1.00;;;24.10;63.50;;;;;;5028833;28;20042;-88
2021/03/02 12:08:03;;;;;;;6.90;3.08;;;24.20;63.00;;;;;;5028712;28;20029;-93
2021/03/02 12:10:34;;;;;;;3.42;1.00;;;24.20;64.00;;;;;;5027337;28;20056;-91
2021/03/02 12:13:00;;;;;;;9.15;2.50;;;24.20;61.70;;;;;;5027392;28;20064;-93
2021/03/02 12:15:27;;;;;;;11.77;6.28;;;24.30;63.10;;;;;;5027147;28;20037;-93
2021/03/02 12:17:54;;;;;;;8.07;1.45;;;24.50;64.10;;;;;;5030751;28;20032;-94
2021/03/02 12:20:21;;;;;;;15.48;8.30;;;24.50;63.20;;;;;;5030540;28;20134;-93
2021/03/02 12:22:48;;;;;;;14.23;4.60;;;24.60;63.20;;;;;;5028682;28;20029;-92
2021/03/02 12:25:15;;;;;;;6.72;1.60;;;24.80;63.80;;;;;;5031427;28;20116;-93
2021/03/02 12:27:42;;;;;;;18.52;11.57;;;24.80;64.10;;;;;;5050921;28;20087;-92
2021/03/02 12:30:09;;;;;;;6.72;2.78;;;25.10;64.20;;;;;;5047906;28;20040;-90
2021/03/02 12:32:36;;;;;;;5.55;2.17;;;25.00;62.70;;;;;;5048516;28;20036;-92
2021/03/02 12:35:04;;;;;;;5.75;2.15;;;25.00;64.30;;;;;;5049664;28;20094;-92
2021/03/02 12:37:31;;;;;;;7.75;1.52;;;25.20;64.50;;;;;;5049500;28;20032;-92
2021/03/02 12:39:58;;;;;;;4.60;1.85;;;25.40;64.80;;;;;;5053128;28;20029;-92
2021/03/02 12:42:26;;;;;;;4.90;2.08;;;25.50;63.70;;;;;;5052398;28;20021;-89
2021/03/02 12:44:53;;;;;;;4.18;1.75;;;25.70;63.90;;;;;;5036618;28;20063;-94
2021/03/02 12:47:30;;;;;;;6.22;1.35;;;25.70;64.20;;;;;;5047864;28;20067;-93
2021/03/02 12:49:57;;;;;;;5.82;1.40;;;26.00;65.20;;;;;;5048203;28;20037;-91
2021/03/02 12:52:24;;;;;;;6.85;1.67;;;26.00;64.80;;;;;;5048705;28;20036;-90
2021/03/02 12:54:50;;;;;;;5.20;1.70;;;26.10;65.10;;;;;;5046980;28;20104;-91
2021/03/02 12:57:17;;;;;;;6.30;1.33;;;26.30;65.80;;;;;;5045469;28;20033;-92
2021/03/02 12:59:44;;;;;;;7.00;1.60;;;26.50;65.40;;;;;;5048513;28;20031;-93
2021/03/02 13:02:24;;;;;;;5.90;1.88;;;26.60;64.90;;;;;;5049507;28;20025;-91
2021/03/02 13:04:54;;;;;;;6.65;2.25;;;26.70;66.40;;;;;;5048408;28;20228;-91
2021/03/02 13:07:28;;;;;;;5.15;1.95;;;26.90;66.00;;;;;;5047268;28;20120;-91
2021/03/02 13:09:57;;;;;;;4.78;1.58;;;27.00;66.00;;;;;;5050215;28;20320;-88
2021/03/02 13:12:47;;;;;;;7.28;1.83;;;27.00;66.10;;;;;;5049596;28;20078;-91
2021/03/02 13:15:42;;;;;;;4.82;1.90;;;27.00;66.40;;;;;;5047682;28;20032;-92
2021/03/02 13:18:18;;;;;;;3.25;1.73;;;27.40;66.90;;;;;;5026838;28;20041;-93
2021/03/02 13:21:05;;;;;;;5.30;2.00;;;27.60;67.60;;;;;;5009282;28;20026;-92
2021/03/02 13:23:58;;;;;;;4.82;2.28;;;27.70;66.70;;;;;;5015211;28;20057;-92
2021/03/02 13:27:28;;;;;;;8.13;2.38;;;28.00;66.00;;;;;;5018608;28;20053;-91
2021/03/02 13:29:58;;;;;;;;;;;;;;;;;;;;;
2021/03/02 13:32:37;;;;;;;8.50;2.28;;;28.30;65.10;;;;;;5033295;28;20068;-91
2021/03/02 13:35:08;;;;;;;6.95;1.80;;;28.70;63.70;;;;;;5035652;28;20030;-91
2021/03/02 13:37:38;;;;;;;5.88;2.65;;;28.80;64.50;;;;;;5023033;28;20037;-90
2021/03/02 13:47:40;;;;;;;6.35;2.22;;;29.30;63.00;;;;;;5030462;28;20053;-93
2021/03/02 13:50:06;;;;;;;15.30;4.18;;;29.60;62.90;;;;;;5067280;28;20469;-92
2021/03/02 13:52:33;;;;;;;12.18;3.47;;;29.40;61.30;;;;;;5049283;28;20036;-93
2021/03/02 13:55:01;;;;;;;9.35;2.83;;;29.90;59.30;;;;;;5052079;28;20032;-91
2021/03/02 13:57:30;;;;;;;8.02;2.45;;;30.30;60.10;;;;;;5052433;28;20213;-94
2021/03/02 13:59:58;;;;;;;10.38;5.00;;;30.50;60.10;;;;;;5053566;28;20029;-94
2021/03/02 14:02:46;;;;;;;11.50;3.83;;;30.60;58.80;;;;;;5051916;28;20075;-93
2021/03/02 14:05:24;;;;;;;8.63;3.03;;;30.90;60.70;;;;;;5052214;28;20039;-93
2021/03/02 14:08:04;;;;;;;10.05;2.72;;;31.30;58.90;;;;;;5043822;28;20043;-92
2021/03/02 14:10:31;;;;;;;7.20;2.85;;;31.20;58.80;;;;;;5052242;28;20048;-91
2021/03/02 14:13:01;;;;;;;8.93;2.90;;;31.70;59.00;;;;;;5053486;28;20024;-92
2021/03/02 14:16:05;;;;;;;;;;;;;;;;;;;;;
2021/03/02 14:18:52;;;;;;;6.40;2.53;;;31.80;58.00;;;;;;5079953;28;20029;-92
2021/03/02 14:21:23;;;;;;;7.80;3.20;;;31.70;57.40;;;;;;5069005;28;20029;-91
2021/03/02 14:23:50;;;;;;;9.25;3.40;;;31.90;57.90;;;;;;5050684;28;20340;-92
2021/03/02 14:26:18;;;;;;;9.27;3.00;;;32.20;56.00;;;;;;5052991;28;20059;-92
2021/03/02 14:28:48;;;;;;;12.55;3.60;;;32.30;58.00;;;;;;5052803;28;20059;-91
2021/03/02 14:32:05;;;;;;;8.80;2.95;;;31.80;56.70;;;;;;5054405;28;20027;-90
2021/03/02 14:38:12;;;;;;;15.50;3.78;;;32.30;54.00;;;;;;4961470;28;20027;-91
2021/03/02 14:40:47;;;;;;;5.60;2.83;;;32.50;55.30;;;;;;5031482;28;20029;-94
2021/03/02 14:43:16;;;;;;;8.07;3.20;;;31.90;55.90;;;;;;5063646;28;20029;-88
2021/03/02 14:45:49;;;;;;;19.30;9.88;;;31.60;55.90;;;;;;5049877;28;20037;-93
2021/03/02 14:48:40;;;;;;;11.85;5.72;;;31.90;55.10;;;;;;5050248;28;20128;-92
2021/03/02 14:51:40;;;;;;;19.13;12.35;;;32.50;55.90;;;;;;5033021;28;20041;-92
2021/03/02 14:54:10;;;;;;;32.65;5.63;;;33.00;54.90;;;;;;5060451;28;20092;-95
2021/03/02 14:56:38;;;;;;;5.47;2.95;;;32.80;52.40;;;;;;5040640;28;20102;-91
2021/03/02 14:59:58;;;;;;;35.67;13.32;;;32.50;52.50;;;;;;5038417;28;20034;-91
2021/03/02 15:03:09;;;;;;;18.08;4.05;;;33.00;54.40;;;;;;4984558;28;20023;-89
2021/03/02 15:05:48;;;;;;;12.60;3.45;;;33.40;52.50;;;;;;4928785;29;20370;-92